sensor_id;sensor_type;location;lat;lon;timestamp;P1;durP1;ratioP1;P2;durP2;ratioP2
41693;SDS011;27377;50.666;9.150;2023-07-31T00:00:32;6.73;;;1.50;;
41693;SDS011;27377;50.666;9.150;2023-07-31T00:02:57;5.32;;;1.80;;
41693;SDS011;27377;50.666;9.150;2023-07-31T00:05:23;6.00;;;1.70;;
41693;SDS011;27377;50.666;9.150;2023-07-31T00:07:48;5.03;;;1.80;;
41693;SDS011;27377;50.666;9.150;2023-07-31T00:10:14;7.20;;;1.70;;
41693;SDS011;27377;50.666;9.150;2023-07-31T00:12:41;6.33;;;1.73;;
41693;SDS011;27377;50.666;9.150;2023-07-31T00:15:08;5.40;;;1.75;;
41693;SDS011;27377;50.666;9.150;2023-07-31T00:17:34;5.70;;;1.77;;
41693;SDS011;27377;50.666;9.150;2023-07-31T00:20:00;6.80;;;1.60;;
41693;SDS011;27377;50.666;9.150;2023-07-31T00:22:26;6.13;;;1.80;;
41693;SDS011;27377;50.666;9.150;2023-07-31T00:24:52;6.77;;;1.87;;
41693;SDS011;27377;50.666;9.150;2023-07-31T00:27:17;4.93;;;1.50;;
41693;SDS011;27377;50.666;9.150;2023-07-31T00:29:43;6.07;;;1.97;;
41693;SDS011;27377;50.666;9.150;2023-07-31T00:32:08;4.97;;;1.50;;
41693;SDS011;27377;50.666;9.150;2023-07-31T00:34:34;5.85;;;1.80;;
41693;SDS011;27377;50.666;9.150;2023-07-31T00:36:59;5.30;;;1.90;;
41693;SDS011;27377;50.666;9.150;2023-07-31T00:39:25;5.40;;;1.70;;
41693;SDS011;27377;50.666;9.150;2023-07-31T00:41:51;5.27;;;1.67;;
41693;SDS011;27377;50.666;9.150;2023-07-31T00:44:16;6.20;;;1.73;;
41693;SDS011;27377;50.666;9.150;2023-07-31T00:46:42;5.70;;;1.63;;
41693;SDS011;27377;50.666;9.150;2023-07-31T00:49:07;5.87;;;1.73;;
41693;SDS011;27377;50.666;9.150;2023-07-31T00:51:34;7.25;;;1.80;;
41693;SDS011;27377;50.666;9.150;2023-07-31T00:53:59;6.10;;;1.70;;
41693;SDS011;27377;50.666;9.150;2023-07-31T00:56:25;5.38;;;1.90;;
41693;SDS011;27377;50.666;9.150;2023-07-31T00:58:52;6.30;;;2.03;;
41693;SDS011;27377;50.666;9.150;2023-07-31T01:01:18;6.77;;;1.83;;
41693;SDS011;27377;50.666;9.150;2023-07-31T01:03:43;6.40;;;1.87;;
41693;SDS011;27377;50.666;9.150;2023-07-31T01:06:16;5.83;;;1.90;;
41693;SDS011;27377;50.666;9.150;2023-07-31T01:09:04;5.50;;;1.90;;
41693;SDS011;27377;50.666;9.150;2023-07-31T01:11:45;5.63;;;1.90;;
41693;SDS011;27377;50.666;9.150;2023-07-31T01:14:17;5.65;;;1.90;;
41693;SDS011;27377;50.666;9.150;2023-07-31T01:16:42;6.85;;;1.95;;
41693;SDS011;27377;50.666;9.150;2023-07-31T01:19:08;5.43;;;1.77;;
41693;SDS011;27377;50.666;9.150;2023-07-31T01:24:13;8.82;;;1.98;;
41693;SDS011;27377;50.666;9.150;2023-07-31T01:27:04;4.75;;;1.77;;
41693;SDS011;27377;50.666;9.150;2023-07-31T01:32:42;7.43;;;1.83;;
41693;SDS011;27377;50.666;9.150;2023-07-31T01:35:08;7.07;;;2.20;;
41693;SDS011;27377;50.666;9.150;2023-07-31T01:37:34;9.07;;;2.17;;
41693;SDS011;27377;50.666;9.150;2023-07-31T01:40:00;6.27;;;2.10;;
41693;SDS011;27377;50.666;9.150;2023-07-31T01:42:26;6.40;;;2.10;;
41693;SDS011;27377;50.666;9.150;2023-07-31T01:44:51;6.23;;;2.10;;
41693;SDS011;27377;50.666;9.150;2023-07-31T01:47:17;5.83;;;1.90;;
41693;SDS011;27377;50.666;9.150;2023-07-31T01:49:42;5.37;;;1.70;;
41693;SDS011;27377;50.666;9.150;2023-07-31T01:52:08;6.27;;;1.80;;
41693;SDS011;27377;50.666;9.150;2023-07-31T01:54:33;6.10;;;1.90;;
41693;SDS011;27377;50.666;9.150;2023-07-31T01:56:59;6.15;;;1.80;;
41693;SDS011;27377;50.666;9.150;2023-07-31T01:59:24;6.60;;;1.80;;
41693;SDS011;27377;50.666;9.150;2023-07-31T02:01:50;8.43;;;1.90;;
41693;SDS011;27377;50.666;9.150;2023-07-31T02:04:16;5.50;;;1.97;;
41693;SDS011;27377;50.666;9.150;2023-07-31T02:06:41;6.40;;;2.03;;
41693;SDS011;27377;50.666;9.150;2023-07-31T02:09:08;5.75;;;2.00;;
41693;SDS011;27377;50.666;9.150;2023-07-31T02:11:33;5.67;;;1.90;;
41693;SDS011;27377;50.666;9.150;2023-07-31T02:13:59;6.03;;;2.07;;
41693;SDS011;27377;50.666;9.150;2023-07-31T02:16:24;5.33;;;2.00;;
41693;SDS011;27377;50.666;9.150;2023-07-31T02:18:50;6.13;;;2.10;;
41693;SDS011;27377;50.666;9.150;2023-07-31T02:21:16;5.63;;;2.00;;
41693;SDS011;27377;50.666;9.150;2023-07-31T02:23:41;6.40;;;2.00;;
41693;SDS011;27377;50.666;9.150;2023-07-31T02:26:07;6.07;;;2.00;;
41693;SDS011;27377;50.666;9.150;2023-07-31T02:28:33;6.10;;;1.98;;
41693;SDS011;27377;50.666;9.150;2023-07-31T02:30:58;7.22;;;2.00;;
41693;SDS011;27377;50.666;9.150;2023-07-31T02:33:24;5.20;;;1.70;;
41693;SDS011;27377;50.666;9.150;2023-07-31T02:35:49;8.77;;;2.20;;
41693;SDS011;27377;50.666;9.150;2023-07-31T02:38:15;8.55;;;2.28;;
41693;SDS011;27377;50.666;9.150;2023-07-31T02:40:40;7.05;;;2.05;;
41693;SDS011;27377;50.666;9.150;2023-07-31T02:43:06;5.13;;;1.80;;
41693;SDS011;27377;50.666;9.150;2023-07-31T02:45:32;6.32;;;2.22;;
41693;SDS011;27377;50.666;9.150;2023-07-31T02:47:58;6.53;;;1.90;;
41693;SDS011;27377;50.666;9.150;2023-07-31T02:50:23;4.67;;;1.90;;
41693;SDS011;27377;50.666;9.150;2023-07-31T02:52:49;7.83;;;2.03;;
41693;SDS011;27377;50.666;9.150;2023-07-31T02:55:17;6.88;;;2.30;;
41693;SDS011;27377;50.666;9.150;2023-07-31T02:57:46;8.38;;;2.30;;
41693;SDS011;27377;50.666;9.150;2023-07-31T03:00:12;6.88;;;2.15;;
41693;SDS011;27377;50.666;9.150;2023-07-31T03:02:38;8.23;;;2.20;;
41693;SDS011;27377;50.666;9.150;2023-07-31T03:05:04;6.33;;;2.20;;
41693;SDS011;27377;50.666;9.150;2023-07-31T03:07:29;5.60;;;2.07;;
41693;SDS011;27377;50.666;9.150;2023-07-31T03:09:55;7.23;;;2.13;;
41693;SDS011;27377;50.666;9.150;2023-07-31T03:12:21;6.35;;;1.80;;
41693;SDS011;27377;50.666;9.150;2023-07-31T03:14:47;7.50;;;2.05;;
41693;SDS011;27377;50.666;9.150;2023-07-31T03:17:20;6.10;;;2.10;;
41693;SDS011;27377;50.666;9.150;2023-07-31T03:19:46;5.72;;;2.00;;
41693;SDS011;27377;50.666;9.150;2023-07-31T03:22:11;7.43;;;2.35;;
41693;SDS011;27377;50.666;9.150;2023-07-31T03:24:39;6.47;;;2.10;;
41693;SDS011;27377;50.666;9.150;2023-07-31T03:27:08;7.18;;;2.30;;
41693;SDS011;27377;50.666;9.150;2023-07-31T03:29:37;7.05;;;2.25;;
41693;SDS011;27377;50.666;9.150;2023-07-31T03:32:03;6.03;;;2.27;;
41693;SDS011;27377;50.666;9.150;2023-07-31T03:34:32;7.43;;;2.40;;
41693;SDS011;27377;50.666;9.150;2023-07-31T03:36:58;7.30;;;2.58;;
41693;SDS011;27377;50.666;9.150;2023-07-31T03:39:29;6.13;;;2.22;;
41693;SDS011;27377;50.666;9.150;2023-07-31T03:41:54;5.82;;;2.13;;
41693;SDS011;27377;50.666;9.150;2023-07-31T03:44:20;5.77;;;2.30;;
41693;SDS011;27377;50.666;9.150;2023-07-31T03:46:45;5.57;;;2.10;;
41693;SDS011;27377;50.666;9.150;2023-07-31T03:49:11;6.97;;;2.40;;
41693;SDS011;27377;50.666;9.150;2023-07-31T03:51:52;6.63;;;2.33;;
41693;SDS011;27377;50.666;9.150;2023-07-31T03:54:18;5.72;;;2.25;;
41693;SDS011;27377;50.666;9.150;2023-07-31T03:56:46;7.57;;;2.45;;
41693;SDS011;27377;50.666;9.150;2023-07-31T03:59:15;6.63;;;2.30;;
41693;SDS011;27377;50.666;9.150;2023-07-31T04:01:40;11.60;;;2.40;;
41693;SDS011;27377;50.666;9.150;2023-07-31T04:04:06;6.00;;;2.23;;
41693;SDS011;27377;50.666;9.150;2023-07-31T04:06:34;7.33;;;2.50;;
41693;SDS011;27377;50.666;9.150;2023-07-31T04:09:00;6.68;;;2.13;;
41693;SDS011;27377;50.666;9.150;2023-07-31T04:11:25;6.60;;;2.27;;
41693;SDS011;27377;50.666;9.150;2023-07-31T04:14:00;6.63;;;2.70;;
41693;SDS011;27377;50.666;9.150;2023-07-31T04:16:32;6.15;;;2.63;;
41693;SDS011;27377;50.666;9.150;2023-07-31T04:19:00;6.00;;;2.47;;
41693;SDS011;27377;50.666;9.150;2023-07-31T04:21:27;5.53;;;2.38;;
41693;SDS011;27377;50.666;9.150;2023-07-31T04:23:53;6.40;;;2.38;;
41693;SDS011;27377;50.666;9.150;2023-07-31T04:26:24;6.75;;;2.45;;
41693;SDS011;27377;50.666;9.150;2023-07-31T04:28:49;5.35;;;2.47;;
41693;SDS011;27377;50.666;9.150;2023-07-31T04:31:24;7.28;;;2.60;;
41693;SDS011;27377;50.666;9.150;2023-07-31T04:33:49;6.43;;;2.25;;
41693;SDS011;27377;50.666;9.150;2023-07-31T04:36:15;7.72;;;2.58;;
41693;SDS011;27377;50.666;9.150;2023-07-31T04:38:41;6.57;;;2.38;;
41693;SDS011;27377;50.666;9.150;2023-07-31T04:41:15;6.00;;;2.50;;
41693;SDS011;27377;50.666;9.150;2023-07-31T04:43:48;5.65;;;2.40;;
41693;SDS011;27377;50.666;9.150;2023-07-31T04:46:19;4.80;;;2.22;;
41693;SDS011;27377;50.666;9.150;2023-07-31T04:48:50;5.60;;;2.20;;
41693;SDS011;27377;50.666;9.150;2023-07-31T04:51:19;7.35;;;2.42;;
41693;SDS011;27377;50.666;9.150;2023-07-31T04:53:46;6.60;;;2.63;;
41693;SDS011;27377;50.666;9.150;2023-07-31T04:56:11;6.70;;;2.35;;
41693;SDS011;27377;50.666;9.150;2023-07-31T04:58:37;7.50;;;2.30;;
41693;SDS011;27377;50.666;9.150;2023-07-31T05:01:02;6.07;;;2.43;;
41693;SDS011;27377;50.666;9.150;2023-07-31T05:03:28;6.67;;;2.33;;
41693;SDS011;27377;50.666;9.150;2023-07-31T05:05:53;5.60;;;2.50;;
41693;SDS011;27377;50.666;9.150;2023-07-31T05:08:19;6.43;;;2.50;;
41693;SDS011;27377;50.666;9.150;2023-07-31T05:10:45;4.20;;;2.20;;
41693;SDS011;27377;50.666;9.150;2023-07-31T05:13:10;7.37;;;2.57;;
41693;SDS011;27377;50.666;9.150;2023-07-31T05:15:36;6.83;;;2.40;;
41693;SDS011;27377;50.666;9.150;2023-07-31T05:18:01;7.33;;;2.37;;
41693;SDS011;27377;50.666;9.150;2023-07-31T05:20:27;5.75;;;2.70;;
41693;SDS011;27377;50.666;9.150;2023-07-31T05:22:53;6.53;;;2.80;;
41693;SDS011;27377;50.666;9.150;2023-07-31T05:25:18;6.05;;;2.63;;
41693;SDS011;27377;50.666;9.150;2023-07-31T05:27:44;5.70;;;2.40;;
41693;SDS011;27377;50.666;9.150;2023-07-31T05:30:10;7.47;;;2.47;;
41693;SDS011;27377;50.666;9.150;2023-07-31T05:32:35;6.47;;;2.40;;
41693;SDS011;27377;50.666;9.150;2023-07-31T05:35:01;7.60;;;2.43;;
41693;SDS011;27377;50.666;9.150;2023-07-31T05:37:26;6.43;;;2.40;;
41693;SDS011;27377;50.666;9.150;2023-07-31T05:39:52;5.63;;;2.40;;
41693;SDS011;27377;50.666;9.150;2023-07-31T05:42:18;8.00;;;2.72;;
41693;SDS011;27377;50.666;9.150;2023-07-31T05:44:43;7.63;;;2.55;;
41693;SDS011;27377;50.666;9.150;2023-07-31T05:47:09;5.47;;;2.40;;
41693;SDS011;27377;50.666;9.150;2023-07-31T05:49:35;5.60;;;2.30;;
41693;SDS011;27377;50.666;9.150;2023-07-31T05:52:00;5.70;;;2.30;;
41693;SDS011;27377;50.666;9.150;2023-07-31T05:54:26;8.05;;;2.67;;
41693;SDS011;27377;50.666;9.150;2023-07-31T05:56:51;7.05;;;2.45;;
41693;SDS011;27377;50.666;9.150;2023-07-31T05:59:17;5.95;;;2.50;;
41693;SDS011;27377;50.666;9.150;2023-07-31T06:01:42;5.53;;;2.22;;
41693;SDS011;27377;50.666;9.150;2023-07-31T06:04:08;7.80;;;2.42;;
41693;SDS011;27377;50.666;9.150;2023-07-31T06:06:34;5.23;;;2.57;;
41693;SDS011;27377;50.666;9.150;2023-07-31T06:08:59;6.00;;;2.28;;
41693;SDS011;27377;50.666;9.150;2023-07-31T06:11:25;6.73;;;2.40;;
41693;SDS011;27377;50.666;9.150;2023-07-31T06:13:51;5.50;;;2.10;;
41693;SDS011;27377;50.666;9.150;2023-07-31T06:16:17;7.25;;;2.60;;
41693;SDS011;27377;50.666;9.150;2023-07-31T06:18:42;5.72;;;2.35;;
41693;SDS011;27377;50.666;9.150;2023-07-31T06:21:08;7.07;;;2.53;;
41693;SDS011;27377;50.666;9.150;2023-07-31T06:23:34;5.28;;;2.30;;
41693;SDS011;27377;50.666;9.150;2023-07-31T06:26:00;7.05;;;2.40;;
41693;SDS011;27377;50.666;9.150;2023-07-31T06:28:29;5.40;;;2.58;;
41693;SDS011;27377;50.666;9.150;2023-07-31T06:30:55;6.65;;;2.42;;
41693;SDS011;27377;50.666;9.150;2023-07-31T06:33:21;6.97;;;2.50;;
41693;SDS011;27377;50.666;9.150;2023-07-31T06:35:46;6.65;;;2.30;;
41693;SDS011;27377;50.666;9.150;2023-07-31T06:38:12;5.53;;;2.33;;
41693;SDS011;27377;50.666;9.150;2023-07-31T06:40:37;7.57;;;2.80;;
41693;SDS011;27377;50.666;9.150;2023-07-31T06:43:03;7.03;;;2.20;;
41693;SDS011;27377;50.666;9.150;2023-07-31T06:45:35;5.65;;;2.40;;
41693;SDS011;27377;50.666;9.150;2023-07-31T06:48:02;6.60;;;2.35;;
41693;SDS011;27377;50.666;9.150;2023-07-31T06:50:29;6.38;;;2.60;;
41693;SDS011;27377;50.666;9.150;2023-07-31T06:52:55;5.60;;;2.80;;
41693;SDS011;27377;50.666;9.150;2023-07-31T06:55:20;8.03;;;2.80;;
41693;SDS011;27377;50.666;9.150;2023-07-31T06:57:47;7.00;;;2.63;;
41693;SDS011;27377;50.666;9.150;2023-07-31T07:00:16;6.38;;;2.55;;
41693;SDS011;27377;50.666;9.150;2023-07-31T07:02:42;6.50;;;2.30;;
41693;SDS011;27377;50.666;9.150;2023-07-31T07:05:07;7.40;;;2.72;;
41693;SDS011;27377;50.666;9.150;2023-07-31T07:07:33;9.98;;;2.88;;
41693;SDS011;27377;50.666;9.150;2023-07-31T07:09:59;7.57;;;2.70;;
41693;SDS011;27377;50.666;9.150;2023-07-31T07:12:25;8.47;;;2.90;;
41693;SDS011;27377;50.666;9.150;2023-07-31T07:14:52;8.38;;;2.90;;
41693;SDS011;27377;50.666;9.150;2023-07-31T07:17:18;8.75;;;2.85;;
41693;SDS011;27377;50.666;9.150;2023-07-31T07:19:44;7.07;;;2.80;;
41693;SDS011;27377;50.666;9.150;2023-07-31T07:22:10;8.57;;;3.10;;
41693;SDS011;27377;50.666;9.150;2023-07-31T07:24:36;8.17;;;3.00;;
41693;SDS011;27377;50.666;9.150;2023-07-31T07:27:02;8.10;;;2.90;;
41693;SDS011;27377;50.666;9.150;2023-07-31T07:29:28;6.75;;;2.83;;
41693;SDS011;27377;50.666;9.150;2023-07-31T07:31:53;8.10;;;3.10;;
41693;SDS011;27377;50.666;9.150;2023-07-31T07:34:19;7.95;;;2.80;;
41693;SDS011;27377;50.666;9.150;2023-07-31T07:36:47;8.48;;;3.03;;
41693;SDS011;27377;50.666;9.150;2023-07-31T07:39:13;6.90;;;2.75;;
41693;SDS011;27377;50.666;9.150;2023-07-31T07:41:39;9.43;;;2.93;;
41693;SDS011;27377;50.666;9.150;2023-07-31T07:44:05;10.10;;;3.10;;
41693;SDS011;27377;50.666;9.150;2023-07-31T07:46:30;7.95;;;3.05;;
41693;SDS011;27377;50.666;9.150;2023-07-31T07:48:56;7.68;;;3.17;;
41693;SDS011;27377;50.666;9.150;2023-07-31T07:51:21;6.65;;;2.85;;
41693;SDS011;27377;50.666;9.150;2023-07-31T07:53:47;8.13;;;2.88;;
41693;SDS011;27377;50.666;9.150;2023-07-31T07:56:12;9.77;;;3.30;;
41693;SDS011;27377;50.666;9.150;2023-07-31T07:58:38;9.07;;;3.10;;
41693;SDS011;27377;50.666;9.150;2023-07-31T08:01:03;8.13;;;3.13;;
41693;SDS011;27377;50.666;9.150;2023-07-31T08:03:29;6.37;;;3.00;;
41693;SDS011;27377;50.666;9.150;2023-07-31T08:05:58;7.37;;;2.97;;
41693;SDS011;27377;50.666;9.150;2023-07-31T08:08:24;7.40;;;3.00;;
41693;SDS011;27377;50.666;9.150;2023-07-31T08:10:50;12.37;;;3.30;;
41693;SDS011;27377;50.666;9.150;2023-07-31T08:13:16;10.70;;;3.23;;
41693;SDS011;27377;50.666;9.150;2023-07-31T08:15:41;8.33;;;3.10;;
41693;SDS011;27377;50.666;9.150;2023-07-31T08:18:07;7.90;;;3.10;;
41693;SDS011;27377;50.666;9.150;2023-07-31T08:20:33;8.98;;;3.15;;
41693;SDS011;27377;50.666;9.150;2023-07-31T08:22:59;10.67;;;3.33;;
41693;SDS011;27377;50.666;9.150;2023-07-31T08:25:25;10.90;;;3.03;;
41693;SDS011;27377;50.666;9.150;2023-07-31T08:27:50;9.50;;;3.20;;
41693;SDS011;27377;50.666;9.150;2023-07-31T08:30:17;7.57;;;3.30;;
41693;SDS011;27377;50.666;9.150;2023-07-31T08:32:44;7.32;;;3.28;;
41693;SDS011;27377;50.666;9.150;2023-07-31T08:35:10;8.00;;;3.10;;
41693;SDS011;27377;50.666;9.150;2023-07-31T08:37:36;8.50;;;3.13;;
41693;SDS011;27377;50.666;9.150;2023-07-31T08:40:03;8.32;;;3.03;;
41693;SDS011;27377;50.666;9.150;2023-07-31T08:42:29;8.82;;;3.28;;
41693;SDS011;27377;50.666;9.150;2023-07-31T08:44:55;8.83;;;3.30;;
41693;SDS011;27377;50.666;9.150;2023-07-31T08:47:21;8.18;;;3.25;;
41693;SDS011;27377;50.666;9.150;2023-07-31T08:49:48;9.57;;;3.27;;
41693;SDS011;27377;50.666;9.150;2023-07-31T08:52:15;6.85;;;2.80;;
41693;SDS011;27377;50.666;9.150;2023-07-31T08:54:40;9.20;;;3.47;;
41693;SDS011;27377;50.666;9.150;2023-07-31T08:57:06;10.00;;;3.47;;
41693;SDS011;27377;50.666;9.150;2023-07-31T08:59:33;9.77;;;3.50;;
41693;SDS011;27377;50.666;9.150;2023-07-31T09:02:02;9.90;;;3.58;;
41693;SDS011;27377;50.666;9.150;2023-07-31T09:04:30;10.35;;;3.30;;
41693;SDS011;27377;50.666;9.150;2023-07-31T09:06:57;8.37;;;3.37;;
41693;SDS011;27377;50.666;9.150;2023-07-31T09:09:26;7.38;;;3.50;;
41693;SDS011;27377;50.666;9.150;2023-07-31T09:11:51;8.98;;;3.30;;
41693;SDS011;27377;50.666;9.150;2023-07-31T09:14:18;8.55;;;3.25;;
41693;SDS011;27377;50.666;9.150;2023-07-31T09:16:51;8.80;;;3.13;;
41693;SDS011;27377;50.666;9.150;2023-07-31T09:19:25;9.07;;;3.50;;
41693;SDS011;27377;50.666;9.150;2023-07-31T09:21:54;9.17;;;3.60;;
41693;SDS011;27377;50.666;9.150;2023-07-31T09:24:30;7.90;;;3.10;;
41693;SDS011;27377;50.666;9.150;2023-07-31T09:26:58;9.95;;;3.30;;
41693;SDS011;27377;50.666;9.150;2023-07-31T09:29:24;9.50;;;3.45;;
41693;SDS011;27377;50.666;9.150;2023-07-31T09:31:51;11.63;;;3.60;;
41693;SDS011;27377;50.666;9.150;2023-07-31T09:34:18;10.30;;;3.40;;
41693;SDS011;27377;50.666;9.150;2023-07-31T09:36:48;9.95;;;3.15;;
41693;SDS011;27377;50.666;9.150;2023-07-31T09:39:15;8.48;;;3.40;;
41693;SDS011;27377;50.666;9.150;2023-07-31T09:41:43;9.02;;;3.55;;
41693;SDS011;27377;50.666;9.150;2023-07-31T09:44:10;6.43;;;3.03;;
41693;SDS011;27377;50.666;9.150;2023-07-31T09:46:36;9.00;;;3.70;;
41693;SDS011;27377;50.666;9.150;2023-07-31T09:49:03;9.68;;;3.70;;
41693;SDS011;27377;50.666;9.150;2023-07-31T09:51:34;8.63;;;3.65;;
41693;SDS011;27377;50.666;9.150;2023-07-31T09:54:03;8.10;;;3.30;;
41693;SDS011;27377;50.666;9.150;2023-07-31T09:56:34;8.65;;;3.58;;
41693;SDS011;27377;50.666;9.150;2023-07-31T09:59:01;7.50;;;3.30;;
41693;SDS011;27377;50.666;9.150;2023-07-31T10:01:29;9.13;;;3.45;;
41693;SDS011;27377;50.666;9.150;2023-07-31T10:03:54;8.27;;;3.33;;
41693;SDS011;27377;50.666;9.150;2023-07-31T10:06:22;8.48;;;3.33;;
41693;SDS011;27377;50.666;9.150;2023-07-31T10:08:49;8.63;;;3.38;;
41693;SDS011;27377;50.666;9.150;2023-07-31T10:11:17;7.43;;;3.30;;
41693;SDS011;27377;50.666;9.150;2023-07-31T10:13:44;8.23;;;3.22;;
41693;SDS011;27377;50.666;9.150;2023-07-31T10:16:10;8.10;;;3.42;;
41693;SDS011;27377;50.666;9.150;2023-07-31T10:18:38;7.32;;;3.25;;
41693;SDS011;27377;50.666;9.150;2023-07-31T10:21:05;9.70;;;3.70;;
41693;SDS011;27377;50.666;9.150;2023-07-31T10:23:32;6.70;;;3.33;;
41693;SDS011;27377;50.666;9.150;2023-07-31T10:25:58;7.35;;;3.20;;
41693;SDS011;27377;50.666;9.150;2023-07-31T10:28:25;17.27;;;3.55;;
41693;SDS011;27377;50.666;9.150;2023-07-31T10:30:52;9.17;;;3.50;;
41693;SDS011;27377;50.666;9.150;2023-07-31T10:33:18;8.48;;;3.35;;
41693;SDS011;27377;50.666;9.150;2023-07-31T10:35:46;10.13;;;3.78;;
41693;SDS011;27377;50.666;9.150;2023-07-31T10:38:13;9.83;;;3.50;;
41693;SDS011;27377;50.666;9.150;2023-07-31T10:40:38;8.47;;;3.40;;
41693;SDS011;27377;50.666;9.150;2023-07-31T10:43:04;8.23;;;3.60;;
41693;SDS011;27377;50.666;9.150;2023-07-31T10:45:37;8.57;;;3.88;;
41693;SDS011;27377;50.666;9.150;2023-07-31T10:48:12;8.07;;;3.58;;
41693;SDS011;27377;50.666;9.150;2023-07-31T10:50:46;12.48;;;3.80;;
41693;SDS011;27377;50.666;9.150;2023-07-31T10:56:04;8.40;;;3.55;;
41693;SDS011;27377;50.666;9.150;2023-07-31T10:58:32;10.40;;;3.97;;
41693;SDS011;27377;50.666;9.150;2023-07-31T11:00:59;10.48;;;4.07;;
41693;SDS011;27377;50.666;9.150;2023-07-31T11:03:44;8.50;;;3.95;;
41693;SDS011;27377;50.666;9.150;2023-07-31T11:06:14;9.77;;;4.00;;
41693;SDS011;27377;50.666;9.150;2023-07-31T11:08:41;9.67;;;3.77;;
41693;SDS011;27377;50.666;9.150;2023-07-31T11:11:12;12.20;;;4.10;;
41693;SDS011;27377;50.666;9.150;2023-07-31T11:16:07;9.60;;;3.80;;
41693;SDS011;27377;50.666;9.150;2023-07-31T11:18:34;12.23;;;4.45;;
41693;SDS011;27377;50.666;9.150;2023-07-31T11:20:59;9.18;;;3.97;;
41693;SDS011;27377;50.666;9.150;2023-07-31T11:23:25;11.97;;;4.17;;
41693;SDS011;27377;50.666;9.150;2023-07-31T11:25:51;9.43;;;4.20;;
41693;SDS011;27377;50.666;9.150;2023-07-31T11:28:17;9.50;;;3.90;;
41693;SDS011;27377;50.666;9.150;2023-07-31T11:30:44;11.52;;;4.20;;
41693;SDS011;27377;50.666;9.150;2023-07-31T11:33:11;10.98;;;3.90;;
41693;SDS011;27377;50.666;9.150;2023-07-31T11:35:42;10.23;;;3.97;;
41693;SDS011;27377;50.666;9.150;2023-07-31T11:38:46;9.13;;;3.67;;
41693;SDS011;27377;50.666;9.150;2023-07-31T11:41:05;8.82;;;3.70;;
41693;SDS011;27377;50.666;9.150;2023-07-31T11:43:30;10.95;;;3.72;;
41693;SDS011;27377;50.666;9.150;2023-07-31T11:45:58;10.60;;;4.10;;
41693;SDS011;27377;50.666;9.150;2023-07-31T11:48:25;8.90;;;3.83;;
41693;SDS011;27377;50.666;9.150;2023-07-31T11:50:53;8.50;;;3.90;;
41693;SDS011;27377;50.666;9.150;2023-07-31T11:56:11;10.23;;;3.80;;
41693;SDS011;27377;50.666;9.150;2023-07-31T11:58:41;11.98;;;3.90;;
41693;SDS011;27377;50.666;9.150;2023-07-31T12:01:08;9.17;;;3.80;;
41693;SDS011;27377;50.666;9.150;2023-07-31T12:03:34;11.23;;;3.80;;
41693;SDS011;27377;50.666;9.150;2023-07-31T12:06:00;10.10;;;3.78;;
41693;SDS011;27377;50.666;9.150;2023-07-31T12:08:26;9.25;;;3.70;;
41693;SDS011;27377;50.666;9.150;2023-07-31T12:10:52;9.40;;;3.90;;
41693;SDS011;27377;50.666;9.150;2023-07-31T12:13:25;9.57;;;3.90;;
41693;SDS011;27377;50.666;9.150;2023-07-31T12:15:55;10.88;;;3.50;;
41693;SDS011;27377;50.666;9.150;2023-07-31T12:18:22;7.73;;;3.50;;
41693;SDS011;27377;50.666;9.150;2023-07-31T12:20:53;10.23;;;3.92;;
41693;SDS011;27377;50.666;9.150;2023-07-31T12:23:21;9.27;;;3.55;;
41693;SDS011;27377;50.666;9.150;2023-07-31T12:26:00;8.00;;;3.70;;
41693;SDS011;27377;50.666;9.150;2023-07-31T12:28:30;8.23;;;3.60;;
41693;SDS011;27377;50.666;9.150;2023-07-31T12:31:00;7.70;;;3.47;;
41693;SDS011;27377;50.666;9.150;2023-07-31T12:33:32;9.88;;;3.72;;
41693;SDS011;27377;50.666;9.150;2023-07-31T12:36:00;8.75;;;3.60;;
41693;SDS011;27377;50.666;9.150;2023-07-31T12:38:26;8.20;;;3.55;;
41693;SDS011;27377;50.666;9.150;2023-07-31T12:40:52;7.75;;;3.95;;
41693;SDS011;27377;50.666;9.150;2023-07-31T12:43:18;10.15;;;3.80;;
41693;SDS011;27377;50.666;9.150;2023-07-31T12:45:43;9.87;;;3.53;;
41693;SDS011;27377;50.666;9.150;2023-07-31T12:48:09;9.07;;;3.67;;
41693;SDS011;27377;50.666;9.150;2023-07-31T12:50:34;7.90;;;3.53;;
41693;SDS011;27377;50.666;9.150;2023-07-31T12:53:01;8.05;;;3.45;;
41693;SDS011;27377;50.666;9.150;2023-07-31T12:55:28;8.82;;;3.92;;
41693;SDS011;27377;50.666;9.150;2023-07-31T12:57:55;9.80;;;3.60;;
41693;SDS011;27377;50.666;9.150;2023-07-31T13:00:21;8.00;;;3.25;;
41693;SDS011;27377;50.666;9.150;2023-07-31T13:02:47;9.93;;;3.70;;
41693;SDS011;27377;50.666;9.150;2023-07-31T13:05:12;9.00;;;3.60;;
41693;SDS011;27377;50.666;9.150;2023-07-31T13:07:39;9.68;;;3.40;;
41693;SDS011;27377;50.666;9.150;2023-07-31T13:10:05;7.15;;;3.30;;
41693;SDS011;27377;50.666;9.150;2023-07-31T13:12:31;6.68;;;3.10;;
41693;SDS011;27377;50.666;9.150;2023-07-31T13:14:57;9.20;;;3.70;;
41693;SDS011;27377;50.666;9.150;2023-07-31T13:17:22;7.27;;;3.20;;
41693;SDS011;27377;50.666;9.150;2023-07-31T13:19:48;10.50;;;3.67;;
41693;SDS011;27377;50.666;9.150;2023-07-31T13:22:14;7.40;;;3.33;;
41693;SDS011;27377;50.666;9.150;2023-07-31T13:24:39;9.60;;;3.30;;
41693;SDS011;27377;50.666;9.150;2023-07-31T13:27:05;7.00;;;3.25;;
41693;SDS011;27377;50.666;9.150;2023-07-31T13:29:30;7.15;;;3.42;;
41693;SDS011;27377;50.666;9.150;2023-07-31T13:31:57;6.80;;;3.20;;
41693;SDS011;27377;50.666;9.150;2023-07-31T13:34:23;7.88;;;3.50;;
41693;SDS011;27377;50.666;9.150;2023-07-31T13:36:48;6.97;;;3.30;;
41693;SDS011;27377;50.666;9.150;2023-07-31T13:39:14;8.38;;;3.38;;
41693;SDS011;27377;50.666;9.150;2023-07-31T13:41:39;7.23;;;3.40;;
41693;SDS011;27377;50.666;9.150;2023-07-31T13:44:05;7.50;;;3.50;;
41693;SDS011;27377;50.666;9.150;2023-07-31T13:46:30;7.13;;;3.40;;
41693;SDS011;27377;50.666;9.150;2023-07-31T13:48:57;7.28;;;3.30;;
41693;SDS011;27377;50.666;9.150;2023-07-31T13:51:24;8.52;;;3.40;;
41693;SDS011;27377;50.666;9.150;2023-07-31T13:53:50;8.60;;;3.38;;
41693;SDS011;27377;50.666;9.150;2023-07-31T13:56:16;7.17;;;3.07;;
41693;SDS011;27377;50.666;9.150;2023-07-31T13:58:42;5.97;;;2.87;;
41693;SDS011;27377;50.666;9.150;2023-07-31T14:01:07;6.07;;;3.17;;
41693;SDS011;27377;50.666;9.150;2023-07-31T14:03:33;8.07;;;3.30;;
41693;SDS011;27377;50.666;9.150;2023-07-31T14:05:59;6.80;;;2.92;;
41693;SDS011;27377;50.666;9.150;2023-07-31T14:08:25;9.43;;;3.30;;
41693;SDS011;27377;50.666;9.150;2023-07-31T14:10:50;7.60;;;3.20;;
41693;SDS011;27377;50.666;9.150;2023-07-31T14:13:16;6.17;;;3.07;;
41693;SDS011;27377;50.666;9.150;2023-07-31T14:15:41;6.30;;;2.97;;
41693;SDS011;27377;50.666;9.150;2023-07-31T14:18:08;7.43;;;3.10;;
41693;SDS011;27377;50.666;9.150;2023-07-31T14:20:33;7.63;;;3.10;;
41693;SDS011;27377;50.666;9.150;2023-07-31T14:22:59;7.60;;;3.47;;
41693;SDS011;27377;50.666;9.150;2023-07-31T14:25:26;6.88;;;3.17;;
41693;SDS011;27377;50.666;9.150;2023-07-31T14:27:51;6.15;;;3.00;;
41693;SDS011;27377;50.666;9.150;2023-07-31T14:30:17;7.67;;;3.00;;
41693;SDS011;27377;50.666;9.150;2023-07-31T14:32:43;7.18;;;3.17;;
41693;SDS011;27377;50.666;9.150;2023-07-31T14:35:09;8.40;;;3.20;;
41693;SDS011;27377;50.666;9.150;2023-07-31T14:37:38;6.03;;;2.87;;
41693;SDS011;27377;50.666;9.150;2023-07-31T14:40:08;6.70;;;3.00;;
41693;SDS011;27377;50.666;9.150;2023-07-31T14:42:35;5.88;;;2.60;;
41693;SDS011;27377;50.666;9.150;2023-07-31T14:45:02;6.32;;;2.70;;
41693;SDS011;27377;50.666;9.150;2023-07-31T14:47:31;5.93;;;2.70;;
41693;SDS011;27377;50.666;9.150;2023-07-31T14:49:57;6.88;;;2.67;;
41693;SDS011;27377;50.666;9.150;2023-07-31T14:52:23;6.32;;;2.80;;
41693;SDS011;27377;50.666;9.150;2023-07-31T14:54:49;7.15;;;2.90;;
41693;SDS011;27377;50.666;9.150;2023-07-31T14:57:15;5.17;;;2.73;;